sensor_id;sensor_type;location;lat;lon;timestamp;P1;durP1;ratioP1;P2;durP2;ratioP2
46651;SDS011;32377;52.182;5.398;2023-02-15T00:00:29;89.20;;;47.70;;
46651;SDS011;32377;52.182;5.398;2023-02-15T00:02:55;88.50;;;47.80;;
46651;SDS011;32377;52.182;5.398;2023-02-15T00:05:20;84.37;;;47.73;;
46651;SDS011;32377;52.182;5.398;2023-02-15T00:07:46;87.93;;;47.73;;
46651;SDS011;32377;52.182;5.398;2023-02-15T00:10:11;86.80;;;47.90;;
46651;SDS011;32377;52.182;5.398;2023-02-15T00:12:37;92.67;;;47.47;;
46651;SDS011;32377;52.182;5.398;2023-02-15T00:15:03;92.47;;;49.90;;
46651;SDS011;32377;52.182;5.398;2023-02-15T00:17:29;90.03;;;49.13;;
46651;SDS011;32377;52.182;5.398;2023-02-15T00:19:54;92.40;;;47.53;;
46651;SDS011;32377;52.182;5.398;2023-02-15T00:22:20;90.53;;;48.20;;
46651;SDS011;32377;52.182;5.398;2023-02-15T00:24:46;86.43;;;48.30;;
46651;SDS011;32377;52.182;5.398;2023-02-15T00:27:11;94.33;;;49.77;;
46651;SDS011;32377;52.182;5.398;2023-02-15T00:29:37;87.23;;;48.30;;
46651;SDS011;32377;52.182;5.398;2023-02-15T00:32:02;91.23;;;49.77;;
46651;SDS011;32377;52.182;5.398;2023-02-15T00:34:28;95.03;;;49.47;;
46651;SDS011;32377;52.182;5.398;2023-02-15T00:36:54;88.87;;;47.93;;
46651;SDS011;32377;52.182;5.398;2023-02-15T00:39:20;90.27;;;48.23;;
46651;SDS011;32377;52.182;5.398;2023-02-15T00:41:46;88.90;;;48.80;;
46651;SDS011;32377;52.182;5.398;2023-02-15T00:44:12;89.10;;;47.63;;
46651;SDS011;32377;52.182;5.398;2023-02-15T00:46:38;87.03;;;47.60;;
46651;SDS011;32377;52.182;5.398;2023-02-15T00:49:04;90.67;;;50.50;;
46651;SDS011;32377;52.182;5.398;2023-02-15T00:51:30;94.47;;;47.40;;
46651;SDS011;32377;52.182;5.398;2023-02-15T00:53:56;85.87;;;48.37;;
46651;SDS011;32377;52.182;5.398;2023-02-15T00:56:22;90.63;;;49.60;;
46651;SDS011;32377;52.182;5.398;2023-02-15T00:58:47;95.07;;;48.83;;
46651;SDS011;32377;52.182;5.398;2023-02-15T01:01:14;96.43;;;51.17;;
46651;SDS011;32377;52.182;5.398;2023-02-15T01:03:44;94.70;;;49.07;;
46651;SDS011;32377;52.182;5.398;2023-02-15T01:06:11;87.40;;;48.50;;
46651;SDS011;32377;52.182;5.398;2023-02-15T01:08:38;89.30;;;50.03;;
46651;SDS011;32377;52.182;5.398;2023-02-15T01:11:14;90.80;;;49.77;;
46651;SDS011;32377;52.182;5.398;2023-02-15T01:13:48;92.83;;;49.10;;
46651;SDS011;32377;52.182;5.398;2023-02-15T01:16:14;87.60;;;48.30;;
46651;SDS011;32377;52.182;5.398;2023-02-15T01:18:40;91.60;;;46.67;;
46651;SDS011;32377;52.182;5.398;2023-02-15T01:21:16;88.77;;;47.97;;
46651;SDS011;32377;52.182;5.398;2023-02-15T01:23:44;88.63;;;47.70;;
46651;SDS011;32377;52.182;5.398;2023-02-15T01:26:10;89.97;;;49.10;;
46651;SDS011;32377;52.182;5.398;2023-02-15T01:28:36;94.00;;;47.97;;
46651;SDS011;32377;52.182;5.398;2023-02-15T01:31:09;87.67;;;46.93;;
46651;SDS011;32377;52.182;5.398;2023-02-15T01:33:37;91.45;;;48.63;;
46651;SDS011;32377;52.182;5.398;2023-02-15T01:36:03;84.43;;;45.33;;
46651;SDS011;32377;52.182;5.398;2023-02-15T01:38:29;86.67;;;47.53;;
46651;SDS011;32377;52.182;5.398;2023-02-15T01:40:54;83.23;;;46.00;;
46651;SDS011;32377;52.182;5.398;2023-02-15T01:43:45;86.13;;;46.30;;
46651;SDS011;32377;52.182;5.398;2023-02-15T01:46:12;87.27;;;47.40;;
46651;SDS011;32377;52.182;5.398;2023-02-15T01:48:45;84.07;;;46.73;;
46651;SDS011;32377;52.182;5.398;2023-02-15T01:51:13;85.60;;;45.17;;
46651;SDS011;32377;52.182;5.398;2023-02-15T01:53:43;82.63;;;44.77;;
46651;SDS011;32377;52.182;5.398;2023-02-15T01:56:21;84.13;;;45.03;;
46651;SDS011;32377;52.182;5.398;2023-02-15T01:58:51;85.10;;;44.97;;
46651;SDS011;32377;52.182;5.398;2023-02-15T02:01:20;85.20;;;44.77;;
46651;SDS011;32377;52.182;5.398;2023-02-15T02:06:24;81.70;;;44.13;;
46651;SDS011;32377;52.182;5.398;2023-02-15T02:08:51;81.57;;;44.33;;
46651;SDS011;32377;52.182;5.398;2023-02-15T02:11:18;83.70;;;44.60;;
46651;SDS011;32377;52.182;5.398;2023-02-15T02:13:44;80.23;;;42.57;;
46651;SDS011;32377;52.182;5.398;2023-02-15T02:16:16;83.03;;;44.97;;
46651;SDS011;32377;52.182;5.398;2023-02-15T02:18:59;78.83;;;42.87;;
46651;SDS011;32377;52.182;5.398;2023-02-15T02:36:06;72.83;;;41.20;;
46651;SDS011;32377;52.182;5.398;2023-02-15T02:44:02;82.80;;;44.37;;
46651;SDS011;32377;52.182;5.398;2023-02-15T02:46:42;79.23;;;42.37;;
46651;SDS011;32377;52.182;5.398;2023-02-15T02:49:31;77.70;;;42.33;;
46651;SDS011;32377;52.182;5.398;2023-02-15T02:52:00;76.13;;;41.47;;
46651;SDS011;32377;52.182;5.398;2023-02-15T02:54:30;78.73;;;40.73;;
46651;SDS011;32377;52.182;5.398;2023-02-15T02:56:59;79.77;;;42.00;;
46651;SDS011;32377;52.182;5.398;2023-02-15T02:59:33;77.87;;;42.50;;
46651;SDS011;32377;52.182;5.398;2023-02-15T03:02:24;77.30;;;41.47;;
46651;SDS011;32377;52.182;5.398;2023-02-15T03:04:55;76.57;;;42.13;;
46651;SDS011;32377;52.182;5.398;2023-02-15T03:07:28;75.72;;;42.03;;
46651;SDS011;32377;52.182;5.398;2023-02-15T03:09:57;79.57;;;42.97;;
46651;SDS011;32377;52.182;5.398;2023-02-15T03:12:35;75.57;;;41.00;;
46651;SDS011;32377;52.182;5.398;2023-02-15T03:15:09;80.80;;;42.63;;
46651;SDS011;32377;52.182;5.398;2023-02-15T03:17:40;78.23;;;40.10;;
46651;SDS011;32377;52.182;5.398;2023-02-15T03:20:11;71.93;;;40.70;;
46651;SDS011;32377;52.182;5.398;2023-02-15T03:22:42;78.73;;;41.10;;
46651;SDS011;32377;52.182;5.398;2023-02-15T03:25:25;74.27;;;40.00;;
46651;SDS011;32377;52.182;5.398;2023-02-15T03:27:58;73.73;;;39.97;;
46651;SDS011;32377;52.182;5.398;2023-02-15T03:30:27;74.50;;;40.27;;
46651;SDS011;32377;52.182;5.398;2023-02-15T03:32:54;74.73;;;40.57;;
46651;SDS011;32377;52.182;5.398;2023-02-15T03:35:24;72.70;;;39.83;;
46651;SDS011;32377;52.182;5.398;2023-02-15T03:37:59;76.03;;;40.33;;
46651;SDS011;32377;52.182;5.398;2023-02-15T03:40:45;79.67;;;42.00;;
46651;SDS011;32377;52.182;5.398;2023-02-15T03:43:32;82.53;;;42.33;;
46651;SDS011;32377;52.182;5.398;2023-02-15T03:46:12;74.33;;;40.93;;
46651;SDS011;32377;52.182;5.398;2023-02-15T03:49:24;75.03;;;39.80;;
46651;SDS011;32377;52.182;5.398;2023-02-15T03:51:50;78.93;;;40.87;;
46651;SDS011;32377;52.182;5.398;2023-02-15T03:54:24;81.87;;;40.63;;
46651;SDS011;32377;52.182;5.398;2023-02-15T03:57:07;75.33;;;40.87;;
46651;SDS011;32377;52.182;5.398;2023-02-15T03:59:54;72.87;;;39.17;;
46651;SDS011;32377;52.182;5.398;2023-02-15T04:02:39;78.97;;;39.77;;
46651;SDS011;32377;52.182;5.398;2023-02-15T04:05:26;79.57;;;39.33;;
46651;SDS011;32377;52.182;5.398;2023-02-15T04:07:51;73.30;;;38.27;;
46651;SDS011;32377;52.182;5.398;2023-02-15T04:10:17;76.33;;;39.63;;
46651;SDS011;32377;52.182;5.398;2023-02-15T04:13:01;73.77;;;40.83;;
46651;SDS011;32377;52.182;5.398;2023-02-15T04:15:27;81.70;;;38.50;;
46651;SDS011;32377;52.182;5.398;2023-02-15T04:18:11;77.83;;;40.03;;
46651;SDS011;32377;52.182;5.398;2023-02-15T04:20:37;77.43;;;39.03;;
46651;SDS011;32377;52.182;5.398;2023-02-15T04:23:21;76.77;;;40.57;;
46651;SDS011;32377;52.182;5.398;2023-02-15T04:26:05;72.93;;;38.60;;
46651;SDS011;32377;52.182;5.398;2023-02-15T04:28:31;76.47;;;40.30;;
46651;SDS011;32377;52.182;5.398;2023-02-15T04:30:57;78.03;;;39.77;;
46651;SDS011;32377;52.182;5.398;2023-02-15T04:33:23;77.20;;;38.87;;
46651;SDS011;32377;52.182;5.398;2023-02-15T04:35:48;77.90;;;39.27;;
46651;SDS011;32377;52.182;5.398;2023-02-15T04:38:14;78.47;;;39.27;;
46651;SDS011;32377;52.182;5.398;2023-02-15T04:40:39;72.13;;;37.17;;
46651;SDS011;32377;52.182;5.398;2023-02-15T04:43:05;69.60;;;36.87;;
46651;SDS011;32377;52.182;5.398;2023-02-15T04:45:30;77.07;;;39.67;;
46651;SDS011;32377;52.182;5.398;2023-02-15T04:47:56;77.70;;;38.70;;
46651;SDS011;32377;52.182;5.398;2023-02-15T04:50:22;73.40;;;38.00;;
46651;SDS011;32377;52.182;5.398;2023-02-15T04:52:47;81.27;;;38.63;;
46651;SDS011;32377;52.182;5.398;2023-02-15T04:55:13;72.73;;;37.30;;
46651;SDS011;32377;52.182;5.398;2023-02-15T04:59:06;73.90;;;35.50;;
46651;SDS011;32377;52.182;5.398;2023-02-15T05:01:31;76.33;;;39.30;;
46651;SDS011;32377;52.182;5.398;2023-02-15T05:03:57;76.50;;;38.37;;
46651;SDS011;32377;52.182;5.398;2023-02-15T05:06:22;75.80;;;38.03;;
46651;SDS011;32377;52.182;5.398;2023-02-15T05:08:48;75.13;;;36.73;;
46651;SDS011;32377;52.182;5.398;2023-02-15T05:11:14;77.93;;;38.93;;
46651;SDS011;32377;52.182;5.398;2023-02-15T05:13:39;84.23;;;38.10;;
46651;SDS011;32377;52.182;5.398;2023-02-15T05:16:05;84.57;;;38.93;;
46651;SDS011;32377;52.182;5.398;2023-02-15T05:18:30;75.80;;;40.27;;
46651;SDS011;32377;52.182;5.398;2023-02-15T05:20:56;75.23;;;38.60;;
46651;SDS011;32377;52.182;5.398;2023-02-15T05:23:22;74.87;;;38.33;;
46651;SDS011;32377;52.182;5.398;2023-02-15T05:25:48;76.13;;;38.63;;
46651;SDS011;32377;52.182;5.398;2023-02-15T05:28:33;71.88;;;37.30;;
46651;SDS011;32377;52.182;5.398;2023-02-15T05:31:07;81.03;;;37.73;;
46651;SDS011;32377;52.182;5.398;2023-02-15T05:33:38;75.03;;;39.10;;
46651;SDS011;32377;52.182;5.398;2023-02-15T05:36:05;74.70;;;37.57;;
46651;SDS011;32377;52.182;5.398;2023-02-15T05:38:31;77.67;;;37.20;;
46651;SDS011;32377;52.182;5.398;2023-02-15T05:40:57;69.43;;;36.57;;
46651;SDS011;32377;52.182;5.398;2023-02-15T05:43:23;71.80;;;36.67;;
46651;SDS011;32377;52.182;5.398;2023-02-15T05:45:50;73.17;;;37.00;;
46651;SDS011;32377;52.182;5.398;2023-02-15T05:48:17;69.03;;;35.13;;
46651;SDS011;32377;52.182;5.398;2023-02-15T05:50:43;72.90;;;36.80;;
46651;SDS011;32377;52.182;5.398;2023-02-15T05:53:09;74.23;;;36.30;;
46651;SDS011;32377;52.182;5.398;2023-02-15T05:55:38;76.37;;;36.70;;
46651;SDS011;32377;52.182;5.398;2023-02-15T05:58:05;75.07;;;37.93;;
46651;SDS011;32377;52.182;5.398;2023-02-15T06:00:31;76.83;;;37.37;;
46651;SDS011;32377;52.182;5.398;2023-02-15T06:02:57;66.97;;;35.50;;
46651;SDS011;32377;52.182;5.398;2023-02-15T06:05:22;71.43;;;36.90;;
46651;SDS011;32377;52.182;5.398;2023-02-15T06:07:48;75.97;;;36.67;;
46651;SDS011;32377;52.182;5.398;2023-02-15T06:10:13;79.03;;;36.30;;
46651;SDS011;32377;52.182;5.398;2023-02-15T06:12:39;81.43;;;37.87;;
46651;SDS011;32377;52.182;5.398;2023-02-15T06:15:05;74.40;;;35.90;;
46651;SDS011;32377;52.182;5.398;2023-02-15T06:17:30;67.87;;;35.40;;
46651;SDS011;32377;52.182;5.398;2023-02-15T06:19:56;80.53;;;36.63;;
46651;SDS011;32377;52.182;5.398;2023-02-15T06:22:22;78.80;;;35.60;;
46651;SDS011;32377;52.182;5.398;2023-02-15T06:24:47;77.83;;;36.83;;
46651;SDS011;32377;52.182;5.398;2023-02-15T06:27:13;75.33;;;36.57;;
46651;SDS011;32377;52.182;5.398;2023-02-15T06:29:39;77.50;;;36.20;;
46651;SDS011;32377;52.182;5.398;2023-02-15T06:32:04;80.07;;;36.97;;
46651;SDS011;32377;52.182;5.398;2023-02-15T06:34:30;71.97;;;35.83;;
46651;SDS011;32377;52.182;5.398;2023-02-15T06:36:56;70.47;;;35.03;;
46651;SDS011;32377;52.182;5.398;2023-02-15T06:39:22;78.27;;;36.77;;
46651;SDS011;32377;52.182;5.398;2023-02-15T06:41:48;74.33;;;37.50;;
46651;SDS011;32377;52.182;5.398;2023-02-15T06:44:13;78.00;;;36.93;;
46651;SDS011;32377;52.182;5.398;2023-02-15T06:46:39;88.07;;;39.07;;
46651;SDS011;32377;52.182;5.398;2023-02-15T06:49:04;77.10;;;36.90;;
46651;SDS011;32377;52.182;5.398;2023-02-15T06:51:30;76.63;;;37.93;;
46651;SDS011;32377;52.182;5.398;2023-02-15T06:53:56;78.13;;;37.10;;
46651;SDS011;32377;52.182;5.398;2023-02-15T06:56:21;76.17;;;36.13;;
46651;SDS011;32377;52.182;5.398;2023-02-15T06:58:47;79.13;;;37.30;;
46651;SDS011;32377;52.182;5.398;2023-02-15T07:01:14;73.47;;;36.73;;
46651;SDS011;32377;52.182;5.398;2023-02-15T07:03:40;78.73;;;37.10;;
46651;SDS011;32377;52.182;5.398;2023-02-15T07:06:05;77.73;;;38.23;;
46651;SDS011;32377;52.182;5.398;2023-02-15T07:08:33;80.20;;;37.17;;
46651;SDS011;32377;52.182;5.398;2023-02-15T07:10:59;72.67;;;36.37;;
46651;SDS011;32377;52.182;5.398;2023-02-15T07:13:44;89.65;;;39.08;;
46651;SDS011;32377;52.182;5.398;2023-02-15T07:16:10;82.60;;;38.50;;
46651;SDS011;32377;52.182;5.398;2023-02-15T07:18:36;84.93;;;38.77;;
46651;SDS011;32377;52.182;5.398;2023-02-15T07:21:02;74.77;;;36.87;;
46651;SDS011;32377;52.182;5.398;2023-02-15T07:23:27;81.57;;;37.20;;
46651;SDS011;32377;52.182;5.398;2023-02-15T07:25:57;82.13;;;37.77;;
46651;SDS011;32377;52.182;5.398;2023-02-15T07:28:23;73.57;;;36.43;;
46651;SDS011;32377;52.182;5.398;2023-02-15T07:30:49;79.70;;;38.13;;
46651;SDS011;32377;52.182;5.398;2023-02-15T07:33:15;79.50;;;37.70;;
46651;SDS011;32377;52.182;5.398;2023-02-15T07:35:55;99.53;;;38.83;;
46651;SDS011;32377;52.182;5.398;2023-02-15T07:40:58;85.67;;;38.93;;
46651;SDS011;32377;52.182;5.398;2023-02-15T07:43:24;85.03;;;40.37;;
46651;SDS011;32377;52.182;5.398;2023-02-15T07:45:50;87.03;;;40.93;;
46651;SDS011;32377;52.182;5.398;2023-02-15T07:48:16;78.70;;;37.33;;
46651;SDS011;32377;52.182;5.398;2023-02-15T07:50:42;80.60;;;38.43;;
46651;SDS011;32377;52.182;5.398;2023-02-15T07:53:08;78.30;;;37.73;;
46651;SDS011;32377;52.182;5.398;2023-02-15T07:55:33;76.67;;;37.73;;
46651;SDS011;32377;52.182;5.398;2023-02-15T07:57:59;82.23;;;39.23;;
46651;SDS011;32377;52.182;5.398;2023-02-15T08:00:25;77.83;;;40.00;;
46651;SDS011;32377;52.182;5.398;2023-02-15T08:02:52;78.43;;;38.37;;
46651;SDS011;32377;52.182;5.398;2023-02-15T08:05:38;78.13;;;38.50;;
46651;SDS011;32377;52.182;5.398;2023-02-15T08:08:05;80.70;;;39.27;;
46651;SDS011;32377;52.182;5.398;2023-02-15T08:10:31;87.97;;;39.60;;
46651;SDS011;32377;52.182;5.398;2023-02-15T08:13:16;83.83;;;39.70;;
46651;SDS011;32377;52.182;5.398;2023-02-15T08:15:50;82.83;;;41.33;;
46651;SDS011;32377;52.182;5.398;2023-02-15T08:18:16;80.05;;;40.67;;
46651;SDS011;32377;52.182;5.398;2023-02-15T08:20:42;81.10;;;39.60;;
46651;SDS011;32377;52.182;5.398;2023-02-15T08:23:07;77.53;;;37.97;;
46651;SDS011;32377;52.182;5.398;2023-02-15T08:25:33;79.50;;;40.07;;
46651;SDS011;32377;52.182;5.398;2023-02-15T08:27:59;81.50;;;39.80;;
46651;SDS011;32377;52.182;5.398;2023-02-15T08:30:24;76.43;;;38.33;;
46651;SDS011;32377;52.182;5.398;2023-02-15T08:32:50;80.80;;;40.37;;
46651;SDS011;32377;52.182;5.398;2023-02-15T08:35:16;80.87;;;41.30;;
46651;SDS011;32377;52.182;5.398;2023-02-15T08:37:42;69.40;;;37.03;;
46651;SDS011;32377;52.182;5.398;2023-02-15T08:40:07;79.90;;;39.50;;
46651;SDS011;32377;52.182;5.398;2023-02-15T08:42:33;88.97;;;41.83;;
46651;SDS011;32377;52.182;5.398;2023-02-15T08:44:59;71.37;;;40.17;;
46651;SDS011;32377;52.182;5.398;2023-02-15T08:47:24;82.30;;;38.07;;
46651;SDS011;32377;52.182;5.398;2023-02-15T08:49:50;74.33;;;39.53;;
46651;SDS011;32377;52.182;5.398;2023-02-15T08:52:16;80.50;;;39.67;;
46651;SDS011;32377;52.182;5.398;2023-02-15T08:54:42;75.83;;;39.27;;
46651;SDS011;32377;52.182;5.398;2023-02-15T08:57:07;76.87;;;40.00;;
46651;SDS011;32377;52.182;5.398;2023-02-15T08:59:34;81.30;;;39.83;;
46651;SDS011;32377;52.182;5.398;2023-02-15T09:02:00;76.77;;;38.50;;
46651;SDS011;32377;52.182;5.398;2023-02-15T09:04:26;78.57;;;41.43;;
46651;SDS011;32377;52.182;5.398;2023-02-15T09:06:54;76.93;;;38.63;;
46651;SDS011;32377;52.182;5.398;2023-02-15T09:09:20;76.20;;;38.97;;
46651;SDS011;32377;52.182;5.398;2023-02-15T09:11:47;72.03;;;38.00;;
46651;SDS011;32377;52.182;5.398;2023-02-15T09:14:18;70.70;;;36.73;;
46651;SDS011;32377;52.182;5.398;2023-02-15T09:16:46;76.80;;;37.90;;
46651;SDS011;32377;52.182;5.398;2023-02-15T09:19:14;69.57;;;37.00;;
46651;SDS011;32377;52.182;5.398;2023-02-15T09:21:40;78.33;;;38.73;;
46651;SDS011;32377;52.182;5.398;2023-02-15T09:24:08;77.97;;;38.45;;
46651;SDS011;32377;52.182;5.398;2023-02-15T09:26:35;70.87;;;38.83;;
46651;SDS011;32377;52.182;5.398;2023-02-15T09:29:04;71.77;;;37.17;;
46651;SDS011;32377;52.182;5.398;2023-02-15T09:31:33;74.25;;;37.70;;
46651;SDS011;32377;52.182;5.398;2023-02-15T09:34:03;71.18;;;38.22;;
46651;SDS011;32377;52.182;5.398;2023-02-15T09:36:33;74.68;;;37.03;;
46651;SDS011;32377;52.182;5.398;2023-02-15T09:39:16;72.50;;;37.67;;
46651;SDS011;32377;52.182;5.398;2023-02-15T09:42:02;69.68;;;37.30;;
46651;SDS011;32377;52.182;5.398;2023-02-15T09:53:07;68.63;;;36.50;;
46651;SDS011;32377;52.182;5.398;2023-02-15T09:56:11;67.32;;;35.22;;
46651;SDS011;32377;52.182;5.398;2023-02-15T10:01:22;59.30;;;35.13;;
46651;SDS011;32377;52.182;5.398;2023-02-15T10:09:39;63.50;;;34.67;;
46651;SDS011;32377;52.182;5.398;2023-02-15T10:17:27;68.55;;;36.33;;
46651;SDS011;32377;52.182;5.398;2023-02-15T10:20:49;66.13;;;36.15;;
46651;SDS011;32377;52.182;5.398;2023-02-15T10:31:11;65.97;;;35.67;;
46651;SDS011;32377;52.182;5.398;2023-02-15T10:42:17;69.95;;;36.30;;
46651;SDS011;32377;52.182;5.398;2023-02-15T10:53:23;69.88;;;35.95;;
46651;SDS011;32377;52.182;5.398;2023-02-15T11:01:47;66.10;;;33.90;;
46651;SDS011;32377;52.182;5.398;2023-02-15T11:04:32;64.30;;;36.22;;
46651;SDS011;32377;52.182;5.398;2023-02-15T11:07:21;64.18;;;34.58;;
46651;SDS011;32377;52.182;5.398;2023-02-15T11:12:53;64.68;;;33.67;;
46651;SDS011;32377;52.182;5.398;2023-02-15T11:15:34;65.28;;;34.33;;
46651;SDS011;32377;52.182;5.398;2023-02-15T11:18:24;66.63;;;33.15;;
46651;SDS011;32377;52.182;5.398;2023-02-15T11:23:42;62.65;;;33.05;;
46651;SDS011;32377;52.182;5.398;2023-02-15T11:26:14;59.03;;;32.90;;
46651;SDS011;32377;52.182;5.398;2023-02-15T11:28:54;59.38;;;34.25;;
46651;SDS011;32377;52.182;5.398;2023-02-15T11:31:25;63.83;;;33.05;;
46651;SDS011;32377;52.182;5.398;2023-02-15T11:33:57;66.30;;;32.63;;
46651;SDS011;32377;52.182;5.398;2023-02-15T11:36:28;65.88;;;34.40;;
46651;SDS011;32377;52.182;5.398;2023-02-15T11:39:00;61.33;;;32.90;;
46651;SDS011;32377;52.182;5.398;2023-02-15T11:41:29;61.20;;;32.97;;
46651;SDS011;32377;52.182;5.398;2023-02-15T11:44:02;63.78;;;34.00;;
46651;SDS011;32377;52.182;5.398;2023-02-15T11:46:37;59.38;;;32.13;;
46651;SDS011;32377;52.182;5.398;2023-02-15T11:49:07;62.90;;;34.33;;
46651;SDS011;32377;52.182;5.398;2023-02-15T11:51:45;58.85;;;34.63;;
46651;SDS011;32377;52.182;5.398;2023-02-15T11:54:11;62.63;;;33.85;;
46651;SDS011;32377;52.182;5.398;2023-02-15T11:56:37;64.57;;;34.40;;
46651;SDS011;32377;52.182;5.398;2023-02-15T11:59:08;61.30;;;32.22;;
46651;SDS011;32377;52.182;5.398;2023-02-15T12:04:25;56.67;;;32.70;;
46651;SDS011;32377;52.182;5.398;2023-02-15T12:09:51;58.72;;;32.40;;
46651;SDS011;32377;52.182;5.398;2023-02-15T12:12:30;55.97;;;31.85;;
46651;SDS011;32377;52.182;5.398;2023-02-15T12:14:58;58.78;;;33.90;;
46651;SDS011;32377;52.182;5.398;2023-02-15T12:17:28;62.38;;;33.30;;
46651;SDS011;32377;52.182;5.398;2023-02-15T12:19:59;58.85;;;32.50;;
46651;SDS011;32377;52.182;5.398;2023-02-15T12:22:28;56.97;;;32.90;;
46651;SDS011;32377;52.182;5.398;2023-02-15T12:24:58;56.92;;;33.22;;
46651;SDS011;32377;52.182;5.398;2023-02-15T12:27:26;66.28;;;33.97;;
46651;SDS011;32377;52.182;5.398;2023-02-15T12:30:04;62.10;;;34.15;;
46651;SDS011;32377;52.182;5.398;2023-02-15T12:33:04;62.95;;;34.65;;
46651;SDS011;32377;52.182;5.398;2023-02-15T12:35:42;63.03;;;35.38;;
46651;SDS011;32377;52.182;5.398;2023-02-15T12:40:34;63.28;;;34.55;;
46651;SDS011;32377;52.182;5.398;2023-02-15T12:43:00;56.83;;;32.10;;
46651;SDS011;32377;52.182;5.398;2023-02-15T12:45:34;60.05;;;34.58;;
46651;SDS011;32377;52.182;5.398;2023-02-15T12:48:08;59.35;;;33.28;;
46651;SDS011;32377;52.182;5.398;2023-02-15T12:50:37;59.85;;;33.50;;
46651;SDS011;32377;52.182;5.398;2023-02-15T12:55:31;55.85;;;32.95;;
46651;SDS011;32377;52.182;5.398;2023-02-15T12:58:07;57.25;;;34.33;;
46651;SDS011;32377;52.182;5.398;2023-02-15T13:00:41;56.78;;;33.33;;
46651;SDS011;32377;52.182;5.398;2023-02-15T13:03:14;60.08;;;33.40;;
46651;SDS011;32377;52.182;5.398;2023-02-15T13:05:46;58.90;;;33.63;;
46651;SDS011;32377;52.182;5.398;2023-02-15T13:08:19;59.00;;;32.83;;
46651;SDS011;32377;52.182;5.398;2023-02-15T13:11:03;58.40;;;34.63;;
46651;SDS011;32377;52.182;5.398;2023-02-15T13:13:36;58.67;;;33.97;;
46651;SDS011;32377;52.182;5.398;2023-02-15T13:16:17;59.10;;;32.92;;
46651;SDS011;32377;52.182;5.398;2023-02-15T13:18:50;58.05;;;33.10;;
46651;SDS011;32377;52.182;5.398;2023-02-15T13:21:31;65.40;;;34.42;;
46651;SDS011;32377;52.182;5.398;2023-02-15T13:24:05;53.22;;;31.95;;
46651;SDS011;32377;52.182;5.398;2023-02-15T13:26:42;58.50;;;32.78;;
46651;SDS011;32377;52.182;5.398;2023-02-15T13:31:53;58.25;;;33.85;;
46651;SDS011;32377;52.182;5.398;2023-02-15T13:34:22;57.65;;;33.67;;
46651;SDS011;32377;52.182;5.398;2023-02-15T13:42:47;58.85;;;33.42;;
46651;SDS011;32377;52.182;5.398;2023-02-15T13:48:15;55.67;;;33.97;;
46651;SDS011;32377;52.182;5.398;2023-02-15T13:51:07;58.80;;;34.63;;
46651;SDS011;32377;52.182;5.398;2023-02-15T13:54:01;61.05;;;33.83;;
46651;SDS011;32377;52.182;5.398;2023-02-15T14:07:47;52.92;;;30.55;;
46651;SDS011;32377;52.182;5.398;2023-02-15T14:23:49;62.45;;;32.30;;
46651;SDS011;32377;52.182;5.398;2023-02-15T14:26:34;62.83;;;34.78;;
46651;SDS011;32377;52.182;5.398;2023-02-15T14:29:24;70.00;;;34.80;;
46651;SDS011;32377;52.182;5.398;2023-02-15T14:35:02;58.60;;;34.20;;
46651;SDS011;32377;52.182;5.398;2023-02-15T14:37:50;63.08;;;34.58;;
46651;SDS011;32377;52.182;5.398;2023-02-15T14:46:21;57.85;;;33.20;;
46651;SDS011;32377;52.182;5.398;2023-02-15T14:49:11;64.10;;;35.63;;
46651;SDS011;32377;52.182;5.398;2023-02-15T14:54:08;66.35;;;36.10;;
46651;SDS011;32377;52.182;5.398;2023-02-15T14:56:46;66.95;;;35.33;;
46651;SDS011;32377;52.182;5.398;2023-02-15T14:59:38;61.55;;;35.22;;
46651;SDS011;32377;52.182;5.398;2023-02-15T15:04:35;69.47;;;37.30;;
46651;SDS011;32377;52.182;5.398;2023-02-15T15:12:45;67.50;;;38.83;;
46651;SDS011;32377;52.182;5.398;2023-02-15T15:18:09;64.30;;;37.20;;
46651;SDS011;32377;52.182;5.398;2023-02-15T15:20:55;65.65;;;35.60;;
46651;SDS011;32377;52.182;5.398;2023-02-15T15:23:38;67.22;;;36.95;;
46651;SDS011;32377;52.182;5.398;2023-02-15T15:26:24;69.30;;;35.53;;
46651;SDS011;32377;52.182;5.398;2023-02-15T15:31:20;65.20;;;35.90;;
46651;SDS011;32377;52.182;5.398;2023-02-15T15:34:28;64.65;;;36.45;;
46651;SDS011;32377;52.182;5.398;2023-02-15T15:45:08;70.35;;;39.38;;
46651;SDS011;32377;52.182;5.398;2023-02-15T15:50:47;59.45;;;36.78;;
46651;SDS011;32377;52.182;5.398;2023-02-15T15:53:22;69.10;;;39.10;;
46651;SDS011;32377;52.182;5.398;2023-02-15T15:55:51;66.60;;;37.55;;
46651;SDS011;32377;52.182;5.398;2023-02-15T15:58:21;70.88;;;38.58;;
46651;SDS011;32377;52.182;5.398;2023-02-15T16:00:49;66.95;;;37.88;;
46651;SDS011;32377;52.182;5.398;2023-02-15T16:03:28;84.28;;;49.28;;
46651;SDS011;32377;52.182;5.398;2023-02-15T16:05:54;75.03;;;41.78;;
46651;SDS011;32377;52.182;5.398;2023-02-15T16:10:56;75.68;;;40.75;;
46651;SDS011;32377;52.182;5.398;2023-02-15T16:13:24;66.63;;;39.38;;
46651;SDS011;32377;52.182;5.398;2023-02-15T16:15:51;71.55;;;39.13;;
46651;SDS011;32377;52.182;5.398;2023-02-15T16:18:19;68.70;;;38.88;;
46651;SDS011;32377;52.182;5.398;2023-02-15T16:20:54;68.82;;;40.53;;
46651;SDS011;32377;52.182;5.398;2023-02-15T16:26:13;69.20;;;41.55;;
46651;SDS011;32377;52.182;5.398;2023-02-15T16:28:49;67.88;;;39.10;;
46651;SDS011;32377;52.182;5.398;2023-02-15T16:31:16;75.15;;;40.28;;
46651;SDS011;32377;52.182;5.398;2023-02-15T16:33:42;73.93;;;41.10;;
46651;SDS011;32377;52.182;5.398;2023-02-15T16:36:30;67.78;;;39.70;;
46651;SDS011;32377;52.182;5.398;2023-02-15T16:41:22;69.97;;;41.15;;
46651;SDS011;32377;52.182;5.398;2023-02-15T16:43:50;79.90;;;40.22;;
46651;SDS011;32377;52.182;5.398;2023-02-15T16:48:52;71.25;;;39.30;;
46651;SDS011;32377;52.182;5.398;2023-02-15T16:51:22;73.97;;;39.42;;
46651;SDS011;32377;52.182;5.398;2023-02-15T16:53:51;70.38;;;40.35;;
46651;SDS011;32377;52.182;5.398;2023-02-15T16:59:14;76.43;;;40.92;;
46651;SDS011;32377;52.182;5.398;2023-02-15T17:02:03;70.82;;;39.03;;
46651;SDS011;32377;52.182;5.398;2023-02-15T17:04:31;80.45;;;42.38;;
46651;SDS011;32377;52.182;5.398;2023-02-15T17:07:04;77.22;;;41.05;;
46651;SDS011;32377;52.182;5.398;2023-02-15T17:09:31;82.38;;;43.67;;
46651;SDS011;32377;52.182;5.398;2023-02-15T17:11:58;78.18;;;42.30;;
46651;SDS011;32377;52.182;5.398;2023-02-15T17:14:31;77.97;;;43.05;;
46651;SDS011;32377;52.182;5.398;2023-02-15T17:17:08;79.93;;;41.78;;
46651;SDS011;32377;52.182;5.398;2023-02-15T17:22:14;76.88;;;43.95;;
46651;SDS011;32377;52.182;5.398;2023-02-15T17:24:48;75.10;;;41.22;;
46651;SDS011;32377;52.182;5.398;2023-02-15T17:27:23;74.25;;;41.90;;
46651;SDS011;32377;52.182;5.398;2023-02-15T17:29:52;76.60;;;42.92;;
46651;SDS011;32377;52.182;5.398;2023-02-15T17:32:22;73.43;;;42.88;;
46651;SDS011;32377;52.182;5.398;2023-02-15T17:34:56;74.53;;;41.10;;
46651;SDS011;32377;52.182;5.398;2023-02-15T17:37:32;74.35;;;42.38;;
46651;SDS011;32377;52.182;5.398;2023-02-15T17:40:16;77.93;;;43.47;;
46651;SDS011;32377;52.182;5.398;2023-02-15T17:42:43;78.30;;;43.40;;
46651;SDS011;32377;52.182;5.398;2023-02-15T17:45:08;83.88;;;46.63;;
46651;SDS011;32377;52.182;5.398;2023-02-15T17:47:34;85.75;;;48.95;;